createdAt,value
2022-10-20T00:02:19.449Z,3.07
2022-10-20T00:04:48.274Z,2.67
2022-10-20T00:07:15.754Z,3.00
2022-10-20T00:09:44.560Z,3.57
2022-10-20T00:12:12.032Z,4.80
2022-10-20T00:14:39.613Z,5.13
2022-10-20T00:17:07.061Z,5.13
2022-10-20T00:19:34.469Z,2.60
2022-10-20T00:22:01.865Z,4.57
2022-10-20T00:24:29.264Z,4.13
2022-10-20T00:26:57.974Z,3.80
2022-10-20T00:29:25.443Z,3.80
2022-10-20T00:31:52.870Z,2.87
2022-10-20T00:34:20.261Z,3.90
2022-10-20T00:36:50.437Z,4.30
2022-10-20T00:39:18.828Z,4.30
2022-10-20T00:41:46.276Z,4.80
2022-10-20T00:44:51.256Z,2.40
2022-10-20T00:47:22.912Z,5.17
2022-10-20T00:49:51.161Z,3.33
2022-10-20T00:52:21.347Z,2.77
2022-10-20T00:54:50.427Z,4.43
2022-10-20T00:57:18.369Z,3.03
2022-10-20T00:59:46.161Z,4.10
2022-10-20T01:02:15.393Z,3.97
2022-10-20T01:04:42.854Z,3.93
2022-10-20T01:07:10.303Z,4.57
2022-10-20T01:09:39.080Z,3.80
2022-10-20T01:12:16.084Z,3.60
2022-10-20T01:14:50.143Z,4.80
2022-10-20T01:17:27.579Z,3.13
2022-10-20T01:20:13.241Z,2.70
2022-10-20T01:23:02.382Z,3.23
2022-10-20T01:25:47.366Z,3.70
2022-10-20T01:28:21.244Z,3.27
2022-10-20T01:30:55.025Z,5.80
2022-10-20T01:33:33.209Z,2.60
2022-10-20T01:36:05.643Z,4.10
2022-10-20T01:38:40.368Z,5.07
2022-10-20T01:41:14.009Z,2.53
2022-10-20T01:43:46.734Z,4.33
2022-10-20T01:46:17.874Z,6.83
2022-10-20T01:48:47.457Z,3.77
2022-10-20T01:51:15.015Z,3.30
2022-10-20T01:53:42.475Z,2.93
2022-10-20T01:56:17.272Z,3.17
2022-10-20T01:59:04.282Z,3.67
2022-10-20T02:01:49.048Z,3.47
2022-10-20T02:04:20.781Z,2.60
2022-10-20T02:06:57.763Z,2.67
2022-10-20T02:09:31.945Z,7.07
2022-10-20T02:12:04.579Z,2.30
2022-10-20T02:14:33.809Z,3.33
2022-10-20T02:17:06.477Z,4.17
2022-10-20T02:19:37.378Z,3.30
2022-10-20T02:22:05.959Z,2.07
2022-10-20T02:24:37.683Z,3.00
2022-10-20T02:27:11.339Z,3.90
2022-10-20T02:29:45.396Z,4.93
2022-10-20T02:32:13.611Z,2.90
2022-10-20T02:34:42.585Z,3.30
2022-10-20T02:37:10.503Z,3.10
2022-10-20T02:39:38.035Z,3.47
2022-10-20T02:42:05.438Z,3.00
2022-10-20T02:44:32.862Z,4.37
2022-10-20T02:47:01.672Z,3.13
2022-10-20T02:49:29.176Z,5.23
2022-10-20T02:51:56.580Z,2.83
2022-10-20T02:54:23.987Z,5.87
2022-10-20T02:56:51.388Z,3.17
2022-10-20T02:59:18.801Z,2.50
2022-10-20T03:01:46.600Z,4.20
2022-10-20T03:04:16.173Z,3.63
2022-10-20T03:06:43.651Z,3.17
2022-10-20T03:09:11.150Z,3.43
2022-10-20T03:11:38.579Z,2.87
2022-10-20T03:14:06.126Z,4.73
2022-10-20T03:16:33.568Z,4.70
2022-10-20T03:19:04.623Z,3.13
2022-10-20T03:21:36.066Z,5.83
2022-10-20T03:24:03.505Z,5.03
2022-10-20T03:26:31.545Z,5.80
2022-10-20T03:28:59.002Z,3.77
2022-10-20T03:31:26.424Z,3.60
2022-10-20T03:33:53.915Z,4.50
2022-10-20T03:36:21.508Z,2.40
2022-10-20T03:38:50.256Z,4.47
2022-10-20T03:41:17.836Z,2.30
2022-10-20T03:43:45.231Z,2.87
2022-10-20T03:46:13.132Z,4.47
2022-10-20T03:48:42.558Z,4.93
2022-10-20T03:51:10.135Z,3.93
2022-10-20T03:53:37.617Z,3.90
2022-10-20T03:56:11.121Z,4.30
2022-10-20T03:58:38.552Z,4.70
2022-10-20T04:01:06.389Z,3.97
2022-10-20T04:03:33.931Z,4.33
2022-10-20T04:06:01.768Z,5.07
2022-10-20T04:08:29.162Z,3.73
2022-10-20T04:10:56.615Z,4.50
2022-10-20T04:13:25.399Z,6.90
2022-10-20T04:15:52.816Z,3.90
2022-10-20T04:18:20.272Z,4.77
2022-10-20T04:20:48.409Z,3.60
2022-10-20T04:23:15.991Z,4.70
2022-10-20T04:25:47.528Z,4.53
2022-10-20T04:28:16.246Z,4.77
2022-10-20T04:30:45.555Z,5.07
2022-10-20T04:33:13.647Z,5.90
2022-10-20T04:35:41.656Z,6.33
2022-10-20T04:38:09.201Z,5.57
2022-10-20T04:40:36.653Z,5.10
2022-10-20T04:43:04.360Z,5.77
2022-10-20T04:45:31.930Z,6.40
2022-10-20T04:48:00.672Z,6.80
2022-10-20T04:50:28.036Z,4.97
2022-10-20T04:52:55.415Z,4.73
2022-10-20T04:55:22.800Z,4.43
2022-10-20T04:57:50.357Z,6.27
2022-10-20T05:00:17.998Z,5.30
2022-10-20T05:02:45.458Z,5.07
2022-10-20T05:05:14.338Z,5.53
2022-10-20T05:07:41.839Z,7.23
2022-10-20T05:10:09.716Z,6.80
2022-10-20T05:12:37.446Z,8.97
2022-10-20T05:15:05.966Z,6.50
2022-10-20T05:17:33.357Z,6.37
2022-10-20T05:20:00.744Z,7.13
2022-10-20T05:22:31.867Z,7.00
2022-10-20T05:25:12.838Z,9.93
2022-10-20T05:27:47.591Z,5.10
2022-10-20T05:30:15.010Z,7.80
2022-10-20T05:32:42.508Z,6.67
2022-10-20T05:35:10.364Z,5.37
2022-10-20T05:37:39.086Z,7.37
2022-10-20T05:40:08.163Z,6.67
2022-10-20T05:42:35.825Z,7.83
2022-10-20T05:45:03.529Z,5.60
2022-10-20T05:47:30.972Z,6.10
2022-10-20T05:49:58.448Z,9.77
2022-10-20T05:52:25.942Z,7.87
2022-10-20T05:54:54.785Z,6.27
2022-10-20T05:57:22.523Z,7.13
2022-10-20T05:59:49.920Z,12.23
2022-10-20T06:02:17.376Z,7.43
2022-10-20T06:04:44.804Z,10.00
2022-10-20T06:07:12.176Z,5.90
2022-10-20T06:09:40.373Z,5.40
2022-10-20T06:14:41.578Z,8.20
2022-10-20T06:17:10.151Z,9.37
2022-10-20T06:19:37.596Z,8.20
2022-10-20T06:22:06.728Z,6.97
2022-10-20T06:24:34.444Z,6.73
2022-10-20T06:27:02.145Z,7.83
2022-10-20T06:29:30.853Z,9.43
2022-10-20T06:31:58.270Z,10.93
2022-10-20T06:34:27.089Z,10.53
2022-10-20T06:36:54.615Z,9.90
2022-10-20T06:39:23.770Z,29.00
2022-10-20T06:41:53.593Z,22.57
2022-10-20T06:44:23.097Z,8.00
2022-10-20T06:46:53.137Z,9.83
2022-10-20T06:49:21.177Z,14.17
2022-10-20T06:51:48.610Z,10.67
2022-10-20T06:54:16.179Z,12.17
2022-10-20T06:56:43.535Z,8.15
2022-10-20T06:59:10.954Z,9.47
2022-10-20T07:01:39.821Z,8.53
2022-10-20T07:04:11.977Z,9.60
2022-10-20T07:06:42.041Z,7.87
2022-10-20T07:09:13.982Z,7.73
2022-10-20T07:11:44.511Z,7.07
2022-10-20T07:14:14.166Z,10.17
2022-10-20T07:16:42.132Z,10.07
